createdAt,value
2022-08-11T00:01:27.183Z,100.00
2022-08-11T00:03:59.881Z,100.00
2022-08-11T00:06:31.960Z,100.00
2022-08-11T00:09:00.758Z,100.00
2022-08-11T00:12:05.051Z,100.00
2022-08-11T00:14:37.445Z,100.00
2022-08-11T00:17:08.892Z,100.00
2022-08-11T00:20:13.183Z,100.00
2022-08-11T00:22:28.577Z,100.00
2022-08-11T00:25:02.117Z,100.00
2022-08-11T00:27:36.922Z,100.00
2022-08-11T00:30:09.031Z,100.00
2022-08-11T00:32:39.034Z,100.00
2022-08-11T00:35:51.367Z,100.00
2022-08-11T00:38:00.057Z,100.00
2022-08-11T00:40:39.513Z,100.00
2022-08-11T00:43:43.144Z,100.00
2022-08-11T00:46:18.287Z,100.00
2022-08-11T00:49:22.692Z,100.00
2022-08-11T00:52:26.946Z,100.00
2022-08-11T00:55:02.954Z,100.00
2022-08-11T00:57:41.689Z,100.00
2022-08-11T01:00:20.267Z,100.00
2022-08-11T01:03:18.114Z,100.00
2022-08-11T01:06:19.992Z,100.00
2022-08-11T01:09:07.721Z,100.00
2022-08-11T01:11:55.892Z,100.00
2022-08-11T01:14:34.152Z,100.00
2022-08-11T01:17:52.569Z,100.00
2022-08-11T01:20:46.087Z,100.00
2022-08-11T01:23:33.711Z,100.00
2022-08-11T01:26:38.359Z,100.00
2022-08-11T01:29:23.878Z,100.00
2022-08-11T01:32:30.197Z,100.00
2022-08-11T01:35:21.703Z,100.00
2022-08-11T01:38:25.790Z,100.00
2022-08-11T01:41:04.852Z,100.00
2022-08-11T01:44:27.341Z,100.00
2022-08-11T01:47:31.878Z,100.00
2022-08-11T01:50:21.528Z,100.00
2022-08-11T01:53:01.051Z,100.00
2022-08-11T01:55:33.895Z,100.00
2022-08-11T01:58:09.915Z,100.00
2022-08-11T02:00:52.397Z,100.00
2022-08-11T02:03:29.572Z,100.00
2022-08-11T02:06:01.306Z,100.00
2022-08-11T02:08:52.164Z,100.00
2022-08-11T02:11:37.561Z,100.00
2022-08-11T02:14:21.054Z,100.00
2022-08-11T02:17:03.189Z,100.00
2022-08-11T02:20:38.378Z,100.00
2022-08-11T02:24:03.924Z,100.00
2022-08-11T02:26:24.553Z,100.00
2022-08-11T02:29:00.689Z,100.00
2022-08-11T02:32:24.953Z,100.00
2022-08-11T02:35:00.637Z,100.00
2022-08-11T02:37:33.931Z,100.00
2022-08-11T02:40:25.249Z,100.00
2022-08-11T02:43:04.442Z,100.00
2022-08-11T02:45:49.113Z,100.00
2022-08-11T02:49:10.369Z,100.00
2022-08-11T02:51:55.674Z,100.00
2022-08-11T02:54:47.413Z,100.00
2022-08-11T02:57:20.355Z,100.00
2022-08-11T02:59:53.675Z,100.00
2022-08-11T03:02:33.760Z,100.00
2022-08-11T03:05:12.040Z,100.00
2022-08-11T03:07:59.071Z,100.00
2022-08-11T03:10:41.593Z,100.00
2022-08-11T03:13:50.342Z,100.00
2022-08-11T03:16:46.891Z,100.00
2022-08-11T03:19:26.490Z,100.00
2022-08-11T03:22:12.999Z,100.00
2022-08-11T03:25:03.155Z,100.00
2022-08-11T03:27:36.978Z,100.00
2022-08-11T03:30:10.431Z,100.00
2022-08-11T03:33:12.113Z,100.00
2022-08-11T03:35:50.865Z,100.00
2022-08-11T03:38:30.449Z,100.00
2022-08-11T03:42:02.712Z,100.00
2022-08-11T03:44:48.415Z,100.00
2022-08-11T03:47:53.479Z,100.00
2022-08-11T03:50:34.967Z,100.00
2022-08-11T03:53:30.889Z,100.00
2022-08-11T03:56:39.523Z,100.00
2022-08-11T03:59:28.809Z,100.00
2022-08-11T04:02:14.391Z,100.00
2022-08-11T04:05:16.544Z,100.00
2022-08-11T04:07:52.718Z,100.00
2022-08-11T04:10:25.570Z,100.00
2022-08-11T04:13:20.615Z,100.00
2022-08-11T04:16:11.992Z,100.00
2022-08-11T04:18:54.853Z,100.00
2022-08-11T04:21:59.481Z,100.00
2022-08-11T04:24:58.646Z,100.00
2022-08-11T04:27:40.238Z,100.00
2022-08-11T04:30:27.876Z,100.00
2022-08-11T04:33:03.649Z,100.00
2022-08-11T04:35:51.135Z,100.00
2022-08-11T04:38:23.920Z,100.00
2022-08-11T04:41:14.423Z,100.00
2022-08-11T04:44:02.412Z,100.00
2022-08-11T04:47:10.828Z,100.00
2022-08-11T04:50:22.846Z,100.00
2022-08-11T04:53:52.259Z,100.00
2022-08-11T04:56:45.016Z,100.00
2022-08-11T04:59:46.244Z,100.00
2022-08-11T05:02:31.147Z,100.00
2022-08-11T05:05:32.138Z,100.00
2022-08-11T05:08:46.244Z,100.00
2022-08-11T05:11:41.246Z,100.00
2022-08-11T05:14:32.956Z,100.00
2022-08-11T05:17:27.601Z,100.00
2022-08-11T05:20:13.004Z,100.00
2022-08-11T05:23:06.441Z,100.00
2022-08-11T05:26:44.378Z,100.00
2022-08-11T05:29:20.234Z,100.00
2022-08-11T05:32:15.579Z,100.00
2022-08-11T05:34:56.602Z,100.00
2022-08-11T05:37:30.678Z,100.00
2022-08-11T05:40:23.922Z,100.00
2022-08-11T05:43:14.052Z,100.00
2022-08-11T05:46:03.999Z,99.47
2022-08-11T05:48:53.546Z,96.77
2022-08-11T05:51:51.938Z,94.35
2022-08-11T05:54:42.989Z,91.14
2022-08-11T05:57:49.430Z,90.01
2022-08-11T06:00:11.218Z,87.29
2022-08-11T06:03:01.345Z,84.60
2022-08-11T06:05:38.507Z,80.05
2022-08-11T06:08:12.434Z,74.45
2022-08-11T06:10:44.793Z,68.60
2022-08-11T06:13:17.489Z,62.78
2022-08-11T06:15:47.209Z,59.16
2022-08-11T06:18:15.594Z,58.30
2022-08-11T06:20:57.618Z,56.44
2022-08-11T06:23:32.114Z,56.84
2022-08-11T06:26:00.770Z,57.45
2022-08-11T06:28:37.310Z,58.86
2022-08-11T06:31:17.316Z,59.45
2022-08-11T06:33:53.225Z,60.31
2022-08-11T06:36:44.993Z,62.39
2022-08-11T06:39:24.365Z,62.29
2022-08-11T06:42:11.521Z,63.63
2022-08-11T06:45:09.871Z,62.31
2022-08-11T06:47:42.431Z,61.42
2022-08-11T06:50:28.069Z,61.19
2022-08-11T06:52:55.693Z,60.82
2022-08-11T06:55:57.094Z,59.66
2022-08-11T06:58:48.614Z,60.27
2022-08-11T07:01:31.172Z,59.88
2022-08-11T07:04:06.874Z,60.09
2022-08-11T07:06:51.174Z,59.54
2022-08-11T07:10:02.195Z,59.87
2022-08-11T07:13:03.220Z,58.77
2022-08-11T07:16:11.761Z,59.13
2022-08-11T07:18:52.529Z,59.68
2022-08-11T07:22:05.323Z,59.49
2022-08-11T07:25:02.719Z,58.38
2022-08-11T07:28:02.218Z,58.05
2022-08-11T07:30:30.650Z,56.31
2022-08-11T07:33:00.989Z,54.31
2022-08-11T07:35:35.291Z,52.85
2022-08-11T07:38:09.349Z,48.63
2022-08-11T07:40:37.260Z,46.89
2022-08-11T07:43:07.065Z,45.98
2022-08-11T07:45:52.817Z,46.15
2022-08-11T07:48:39.523Z,47.38
2022-08-11T07:51:25.197Z,47.65
2022-08-11T07:54:03.040Z,49.17
2022-08-11T07:56:55.348Z,52.89
2022-08-11T08:00:00.574Z,54.63
2022-08-11T08:02:51.187Z,55.32
2022-08-11T08:05:37.601Z,54.38
2022-08-11T08:08:26.092Z,55.12
2022-08-11T08:11:14.696Z,55.36
2022-08-11T08:14:01.733Z,54.91
2022-08-11T08:16:49.922Z,53.84
2022-08-11T08:19:20.705Z,52.17
2022-08-11T08:21:48.919Z,52.57
2022-08-11T08:24:16.572Z,51.41
2022-08-11T08:27:00.136Z,50.92
2022-08-11T08:29:53.871Z,49.72
2022-08-11T08:32:21.910Z,48.49
2022-08-11T08:34:55.731Z,48.94
2022-08-11T08:37:46.379Z,48.54
2022-08-11T08:40:13.632Z,46.98
2022-08-11T08:42:53.772Z,46.38
2022-08-11T08:45:22.449Z,45.06
2022-08-11T08:47:58.665Z,44.70
2022-08-11T08:52:30.754Z,42.92
2022-08-11T08:53:52.332Z,42.82
2022-08-11T08:56:28.381Z,42.46
2022-08-11T08:58:59.045Z,42.07
2022-08-11T09:01:31.235Z,41.36
2022-08-11T09:04:05.182Z,41.33
2022-08-11T09:06:43.118Z,41.01
2022-08-11T09:09:12.386Z,41.77
2022-08-11T09:11:51.008Z,42.91
2022-08-11T09:14:19.039Z,43.58
2022-08-11T09:16:48.055Z,43.63
2022-08-11T09:19:18.437Z,45.43
2022-08-11T09:22:11.566Z,44.44
2022-08-11T09:24:58.701Z,44.28
2022-08-11T09:27:26.829Z,43.81
2022-08-11T09:29:54.721Z,43.48
2022-08-11T09:32:22.943Z,43.37
2022-08-11T09:34:52.499Z,43.15
2022-08-11T09:37:54.160Z,42.74
2022-08-11T09:40:30.293Z,42.80
2022-08-11T09:43:17.908Z,44.00
2022-08-11T09:45:56.636Z,42.85
2022-08-11T09:48:24.823Z,43.06
2022-08-11T09:50:54.823Z,43.05
2022-08-11T09:53:36.380Z,42.44
2022-08-11T09:56:28.136Z,44.07
2022-08-11T09:58:55.411Z,43.95
2022-08-11T10:01:29.098Z,44.25
2022-08-11T10:04:16.237Z,43.68
2022-08-11T10:07:04.522Z,44.03
2022-08-11T10:09:51.759Z,43.29
2022-08-11T10:12:33.579Z,43.07
2022-08-11T10:15:25.961Z,43.76
2022-08-11T10:18:17.166Z,43.94
2022-08-11T10:20:48.259Z,44.20
2022-08-11T10:23:34.343Z,44.92
2022-08-11T10:26:41.177Z,44.89
2022-08-11T10:29:33.431Z,45.22
2022-08-11T10:32:27.061Z,45.92
2022-08-11T10:35:02.092Z,44.88
2022-08-11T10:38:08.784Z,44.40
2022-08-11T10:40:23.763Z,44.47
2022-08-11T10:43:10.647Z,44.33
2022-08-11T10:45:58.629Z,43.76
2022-08-11T10:48:28.832Z,43.29
2022-08-11T10:51:15.275Z,41.75
2022-08-11T10:54:07.162Z,41.23
2022-08-11T10:56:58.183Z,39.71
2022-08-11T10:59:27.788Z,37.16
2022-08-11T11:01:56.424Z,35.61
2022-08-11T11:04:29.247Z,36.90
2022-08-11T11:07:19.922Z,37.32
2022-08-11T11:09:54.483Z,37.83
2022-08-11T11:12:49.187Z,37.03
2022-08-11T11:15:38.057Z,38.15
2022-08-11T11:18:11.475Z,36.72
2022-08-11T11:20:47.993Z,36.93
2022-08-11T11:23:27.102Z,37.71
2022-08-11T11:26:12.771Z,36.05
2022-08-11T11:29:07.566Z,35.64
2022-08-11T11:31:40.052Z,36.78
2022-08-11T11:34:13.202Z,36.71
2022-08-11T11:36:56.825Z,37.82
2022-08-11T11:39:26.654Z,38.39
2022-08-11T11:41:56.186Z,36.93
2022-08-11T11:44:23.995Z,37.61
2022-08-11T11:46:51.832Z,36.81
2022-08-11T11:51:52.869Z,36.24
2022-08-11T11:54:27.807Z,35.20
2022-08-11T11:56:56.814Z,34.29
2022-08-11T11:59:46.259Z,32.32
2022-08-11T12:02:16.344Z,31.07
2022-08-11T12:04:47.884Z,29.99
2022-08-11T12:07:34.610Z,29.52
2022-08-11T12:10:02.026Z,28.75
2022-08-11T12:12:49.186Z,26.43
2022-08-11T12:15:19.303Z,27.15
2022-08-11T12:18:06.467Z,26.56
2022-08-11T12:20:34.492Z,28.03
2022-08-11T12:23:20.800Z,28.74
2022-08-11T12:28:53.672Z,30.68
2022-08-11T12:31:26.040Z,35.25
2022-08-11T12:33:54.247Z,35.66
2022-08-11T12:36:22.538Z,36.32
2022-08-11T12:38:51.719Z,38.68
2022-08-11T12:41:40.395Z,41.45
2022-08-11T12:44:28.309Z,41.69
2022-08-11T12:46:59.708Z,42.13
2022-08-11T12:49:49.728Z,42.83
2022-08-11T12:52:26.267Z,45.59
2022-08-11T12:55:13.450Z,47.94
2022-08-11T12:58:05.688Z,48.74
2022-08-11T13:00:51.992Z,50.14
2022-08-11T13:03:39.041Z,53.23
2022-08-11T13:06:07.802Z,52.54
2022-08-11T13:08:39.406Z,54.31
2022-08-11T13:11:56.356Z,55.60
2022-08-11T13:14:15.216Z,55.54
2022-08-11T13:17:03.038Z,55.16
2022-08-11T13:19:31.114Z,59.93
2022-08-11T13:21:58.873Z,58.44
2022-08-11T13:24:26.399Z,53.17
2022-08-11T13:26:53.739Z,56.93
2022-08-11T13:29:25.662Z,62.24
2022-08-11T13:32:01.065Z,65.52
2022-08-11T13:34:31.290Z,70.41
2022-08-11T13:37:01.795Z,75.31
2022-08-11T13:39:31.111Z,81.66
2022-08-11T13:42:04.420Z,88.11
2022-08-11T13:44:35.997Z,95.54
2022-08-11T13:47:06.726Z,93.41
2022-08-11T13:49:39.466Z,97.13
2022-08-11T13:52:13.047Z,100.00
2022-08-11T13:54:42.526Z,100.00
2022-08-11T13:57:13.452Z,100.00
2022-08-11T13:59:52.380Z,100.00
2022-08-11T14:02:31.934Z,100.00
2022-08-11T14:05:05.233Z,100.00
2022-08-11T14:07:50.827Z,100.00
2022-08-11T14:10:21.086Z,100.00
2022-08-11T14:13:13.613Z,100.00
2022-08-11T14:15:45.101Z,100.00
2022-08-11T14:18:18.462Z,100.00
2022-08-11T14:21:18.284Z,100.00
2022-08-11T14:23:47.838Z,100.00
2022-08-11T14:26:29.239Z,100.00
2022-08-11T14:29:08.383Z,100.00
2022-08-11T14:31:40.706Z,100.00
2022-08-11T14:34:14.649Z,100.00
2022-08-11T14:36:47.471Z,100.00
2022-08-11T14:39:18.361Z,100.00
2022-08-11T14:42:32.830Z,100.00
2022-08-11T14:45:27.967Z,100.00
2022-08-11T14:48:15.149Z,100.00
2022-08-11T14:50:42.326Z,100.00
2022-08-11T14:53:11.741Z,100.00
2022-08-11T14:56:03.923Z,100.00
2022-08-11T14:58:33.988Z,100.00
2022-08-11T15:01:02.831Z,100.00
2022-08-11T15:03:33.856Z,100.00
2022-08-11T15:06:03.550Z,100.00
2022-08-11T15:08:55.397Z,100.00
2022-08-11T15:11:48.065Z,100.00
2022-08-11T15:14:39.364Z,100.00
2022-08-11T15:17:10.224Z,100.00
2022-08-11T15:20:04.650Z,100.00
2022-08-11T15:22:50.392Z,100.00
2022-08-11T15:25:19.954Z,100.00
2022-08-11T15:28:07.015Z,100.00
2022-08-11T15:30:54.811Z,100.00
2022-08-11T15:33:41.379Z,100.00
2022-08-11T15:36:29.257Z,100.00
2022-08-11T15:39:00.412Z,100.00
2022-08-11T15:42:00.354Z,100.00
2022-08-11T15:45:02.696Z,100.00
2022-08-11T15:47:37.764Z,100.00
2022-08-11T15:50:10.759Z,100.00
2022-08-11T15:53:03.157Z,100.00
2022-08-11T15:55:32.920Z,100.00
2022-08-11T15:58:22.787Z,100.00
2022-08-11T16:01:09.567Z,100.00
2022-08-11T16:04:05.799Z,100.00
2022-08-11T16:06:35.285Z,100.00
2022-08-11T16:09:08.158Z,100.00
2022-08-11T16:11:46.695Z,100.00
2022-08-11T16:14:35.036Z,100.00
2022-08-11T16:17:04.493Z,100.00
2022-08-11T16:19:34.885Z,100.00
2022-08-11T16:22:07.296Z,100.00
2022-08-11T16:27:03.662Z,100.00
2022-08-11T16:27:28.017Z,100.00
2022-08-11T16:29:56.229Z,100.00
2022-08-11T16:32:25.888Z,100.00
2022-08-11T16:35:20.444Z,100.00
2022-08-11T16:38:07.044Z,100.00
2022-08-11T16:40:35.518Z,100.00
2022-08-11T16:43:26.094Z,100.00
2022-08-11T16:46:13.087Z,100.00
2022-08-11T16:48:42.701Z,100.00
2022-08-11T16:51:12.966Z,100.00
2022-08-11T16:53:47.359Z,100.00
2022-08-11T16:56:35.458Z,100.00
2022-08-11T16:59:17.710Z,100.00
2022-08-11T17:01:53.625Z,100.00
2022-08-11T17:04:58.256Z,100.00
2022-08-11T17:07:47.536Z,100.00
2022-08-11T17:10:51.129Z,100.00
2022-08-11T17:13:28.078Z,100.00
2022-08-11T17:16:10.182Z,100.00
2022-08-11T17:18:50.226Z,100.00
2022-08-11T17:21:26.383Z,100.00
2022-08-11T17:23:57.115Z,100.00
2022-08-11T17:26:56.983Z,100.00
2022-08-11T17:29:34.146Z,100.00
2022-08-11T17:33:00.723Z,100.00
2022-08-11T17:35:34.266Z,100.00
2022-08-11T17:38:12.931Z,100.00
2022-08-11T17:41:02.974Z,100.00
2022-08-11T17:43:49.735Z,100.00
2022-08-11T17:46:36.354Z,100.00
2022-08-11T17:49:07.802Z,100.00
2022-08-11T17:51:55.250Z,100.00
2022-08-11T17:54:42.685Z,100.00
2022-08-11T17:57:30.542Z,100.00
2022-08-11T17:59:59.367Z,100.00
2022-08-11T18:02:58.040Z,100.00
2022-08-11T18:05:30.849Z,100.00
2022-08-11T18:08:18.882Z,100.00
2022-08-11T18:11:06.153Z,100.00
2022-08-11T18:13:55.260Z,100.00
2022-08-11T18:16:41.017Z,100.00
2022-08-11T18:19:27.144Z,100.00
2022-08-11T18:22:25.529Z,100.00
2022-08-11T18:25:21.555Z,100.00
2022-08-11T18:28:11.008Z,100.00
2022-08-11T18:31:03.453Z,100.00
2022-08-11T18:34:08.343Z,100.00
2022-08-11T18:37:02.766Z,100.00
2022-08-11T18:39:56.232Z,100.00
2022-08-11T18:42:43.695Z,100.00
2022-08-11T18:45:38.461Z,100.00
2022-08-11T18:48:35.978Z,100.00
2022-08-11T18:51:30.571Z,100.00
2022-08-11T18:54:28.306Z,100.00
2022-08-11T18:57:16.503Z,100.00
2022-08-11T19:00:05.699Z,100.00
2022-08-11T19:02:55.343Z,100.00
2022-08-11T19:06:32.302Z,100.00
2022-08-11T19:08:54.045Z,100.00
2022-08-11T19:11:43.599Z,100.00
2022-08-11T19:14:31.560Z,100.00
2022-08-11T19:17:44.525Z,100.00
2022-08-11T19:20:31.804Z,100.00
2022-08-11T19:23:18.315Z,100.00
2022-08-11T19:26:06.704Z,100.00
2022-08-11T19:28:54.401Z,100.00
2022-08-11T19:31:44.377Z,100.00
2022-08-11T19:34:34.577Z,100.00
2022-08-11T19:37:24.431Z,100.00
2022-08-11T19:40:21.963Z,100.00
2022-08-11T19:43:11.171Z,100.00
2022-08-11T19:46:15.439Z,100.00
2022-08-11T19:49:02.574Z,100.00
2022-08-11T19:51:53.377Z,100.00
2022-08-11T19:54:44.445Z,100.00
2022-08-11T19:57:35.722Z,100.00
2022-08-11T20:00:30.106Z,100.00
2022-08-11T20:03:18.659Z,100.00
2022-08-11T20:06:06.048Z,100.00
2022-08-11T20:08:58.637Z,100.00
2022-08-11T20:11:48.556Z,100.00
2022-08-11T20:14:36.655Z,100.00
2022-08-11T20:17:23.876Z,100.00
2022-08-11T20:20:10.480Z,100.00
2022-08-11T20:22:57.595Z,100.00
2022-08-11T20:25:45.063Z,100.00
2022-08-11T20:28:32.661Z,100.00
2022-08-11T20:31:18.572Z,100.00
2022-08-11T20:34:05.455Z,100.00
2022-08-11T20:36:55.007Z,100.00
2022-08-11T20:39:42.039Z,100.00
2022-08-11T20:42:30.484Z,100.00
2022-08-11T20:45:23.640Z,100.00
2022-08-11T20:48:14.694Z,100.00
2022-08-11T20:51:06.147Z,100.00
2022-08-11T20:53:59.210Z,100.00
2022-08-11T20:56:53.897Z,100.00
2022-08-11T20:59:49.542Z,100.00
2022-08-11T21:02:40.008Z,100.00
2022-08-11T21:06:09.182Z,100.00
2022-08-11T21:08:33.072Z,100.00
2022-08-11T21:11:27.625Z,100.00
2022-08-11T21:14:13.929Z,100.00
2022-08-11T21:17:26.755Z,100.00
2022-08-11T21:20:20.649Z,100.00
2022-08-11T21:23:23.921Z,100.00
2022-08-11T21:26:25.266Z,100.00
2022-08-11T21:29:14.459Z,100.00
2022-08-11T21:32:01.165Z,100.00
2022-08-11T21:34:48.772Z,100.00
2022-08-11T21:37:36.526Z,100.00
2022-08-11T21:40:24.336Z,100.00
2022-08-11T21:43:12.729Z,100.00
2022-08-11T21:45:59.340Z,100.00
2022-08-11T21:48:46.583Z,100.00
2022-08-11T21:51:32.514Z,100.00
2022-08-11T21:54:19.736Z,100.00
2022-08-11T21:57:06.242Z,100.00
2022-08-11T22:00:10.558Z,100.00
2022-08-11T22:02:57.785Z,100.00
2022-08-11T22:05:44.474Z,100.00
2022-08-11T22:08:31.667Z,100.00
2022-08-11T22:11:32.404Z,100.00
2022-08-11T22:14:22.511Z,100.00
2022-08-11T22:17:08.492Z,100.00
2022-08-11T22:20:00.635Z,100.00
2022-08-11T22:22:49.088Z,100.00
2022-08-11T22:25:39.167Z,100.00
2022-08-11T22:28:36.155Z,100.00
2022-08-11T22:31:23.743Z,100.00
2022-08-11T22:34:09.210Z,100.00
2022-08-11T22:36:55.862Z,100.00
2022-08-11T22:39:43.621Z,100.00
2022-08-11T22:42:43.580Z,100.00
2022-08-11T22:45:29.091Z,100.00
2022-08-11T22:48:16.835Z,100.00
2022-08-11T22:51:02.999Z,100.00
2022-08-11T22:53:57.931Z,100.00
2022-08-11T22:56:46.701Z,100.00
2022-08-11T22:59:34.114Z,100.00
2022-08-11T23:02:21.319Z,100.00
2022-08-11T23:05:10.890Z,100.00
2022-08-11T23:07:57.489Z,100.00
2022-08-11T23:10:45.209Z,100.00
2022-08-11T23:13:32.352Z,100.00
2022-08-11T23:16:18.967Z,100.00
2022-08-11T23:19:05.755Z,100.00
2022-08-11T23:21:53.701Z,100.00
2022-08-11T23:36:47.076Z,100.00
2022-08-11T23:39:34.329Z,100.00
2022-08-11T23:42:21.455Z,100.00
2022-08-11T23:45:09.742Z,100.00
2022-08-11T23:47:57.531Z,100.00
2022-08-11T23:50:43.372Z,100.00
2022-08-11T23:53:30.878Z,100.00
2022-08-11T23:56:17.607Z,100.00
2022-08-11T23:59:09.804Z,100.00
